createdAt,value
2023-04-23T00:00:34.583Z,15.90
2023-04-23T00:03:09.640Z,16.00
2023-04-23T00:05:42.148Z,16.00
2023-04-23T00:08:12.038Z,15.90
2023-04-23T00:10:39.346Z,15.90
2023-04-23T00:13:15.851Z,15.90
2023-04-23T00:15:43.368Z,15.90
2023-04-23T00:18:10.541Z,15.90
2023-04-23T00:20:37.677Z,15.90
2023-04-23T00:23:04.744Z,15.90
2023-04-23T00:25:32.067Z,15.90
2023-04-23T00:27:59.212Z,15.90
2023-04-23T00:30:26.274Z,15.90
2023-04-23T00:32:56.562Z,15.80
2023-04-23T00:35:23.687Z,15.70
2023-04-23T00:37:50.742Z,15.70
2023-04-23T00:40:18.029Z,15.70
2023-04-23T00:42:45.944Z,15.70
2023-04-23T00:45:13.305Z,15.70
2023-04-23T00:47:41.383Z,15.70
2023-04-23T00:50:08.956Z,15.70
2023-04-23T00:52:36.266Z,15.70
2023-04-23T00:55:05.285Z,15.70
2023-04-23T00:57:32.855Z,15.80
2023-04-23T01:00:00.767Z,15.70
2023-04-23T01:02:30.605Z,15.70
2023-04-23T01:05:00.079Z,15.70
2023-04-23T01:07:28.705Z,15.70
2023-04-23T01:09:56.184Z,15.70
2023-04-23T01:12:23.806Z,15.70
2023-04-23T01:14:51.141Z,15.70
2023-04-23T01:17:18.457Z,15.70
2023-04-23T01:19:46.271Z,15.70
2023-04-23T01:22:15.123Z,15.60
2023-04-23T01:24:43.067Z,15.70
2023-04-23T01:27:11.291Z,15.70
2023-04-23T01:29:42.482Z,15.70
2023-04-23T01:32:09.980Z,15.60
2023-04-23T01:34:39.607Z,15.60
2023-04-23T01:37:07.455Z,15.70
2023-04-23T01:39:37.777Z,15.70
2023-04-23T01:42:07.273Z,15.60
2023-04-23T01:44:34.678Z,15.60
2023-04-23T01:47:02.051Z,15.60
2023-04-23T01:49:29.345Z,15.50
2023-04-23T01:51:56.446Z,15.50
2023-04-23T01:54:23.652Z,15.50
2023-04-23T01:56:54.814Z,15.50
2023-04-23T01:59:23.036Z,15.40
2023-04-23T02:01:50.478Z,15.40
2023-04-23T02:04:18.513Z,15.40
2023-04-23T02:06:49.820Z,15.40
2023-04-23T02:09:17.200Z,15.30
2023-04-23T02:11:44.340Z,15.30
2023-04-23T02:14:14.151Z,15.40
2023-04-23T02:16:41.785Z,15.40
2023-04-23T02:19:08.867Z,15.30
2023-04-23T02:21:35.997Z,15.30
2023-04-23T02:24:03.561Z,15.30
2023-04-23T02:26:33.290Z,15.30
2023-04-23T02:29:00.454Z,15.40
2023-04-23T02:31:27.682Z,15.30
2023-04-23T02:33:55.266Z,15.30
2023-04-23T02:36:22.398Z,15.30
2023-04-23T02:38:51.238Z,15.30
2023-04-23T02:41:18.487Z,15.40
2023-04-23T02:43:45.842Z,15.40
2023-04-23T02:46:12.994Z,15.40
2023-04-23T02:48:42.083Z,15.40
2023-04-23T02:51:11.591Z,15.40
2023-04-23T02:53:38.885Z,15.30
2023-04-23T02:56:07.525Z,15.30
2023-04-23T02:58:35.294Z,15.20
2023-04-23T03:01:04.099Z,15.20
2023-04-23T03:03:34.441Z,15.20
2023-04-23T03:06:04.810Z,15.20
2023-04-23T03:08:31.917Z,15.30
2023-04-23T03:10:59.176Z,15.30
2023-04-23T03:13:27.086Z,15.30
2023-04-23T03:15:54.984Z,15.30
2023-04-23T03:18:22.254Z,15.30
2023-04-23T03:20:52.869Z,15.30
2023-04-23T03:23:20.498Z,15.20
2023-04-23T03:25:48.838Z,15.20
2023-04-23T03:28:16.260Z,15.30
2023-04-23T03:30:44.610Z,15.20
2023-04-23T03:33:12.012Z,15.30
2023-04-23T03:35:39.107Z,15.30
2023-04-23T03:38:11.865Z,15.20
2023-04-23T03:40:39.126Z,15.10
2023-04-23T03:43:08.828Z,15.10
2023-04-23T03:45:54.509Z,15.00
2023-04-23T03:48:22.598Z,15.00
2023-04-23T03:50:50.373Z,14.90
2023-04-23T03:53:37.094Z,14.90
2023-04-23T03:56:22.442Z,14.90
2023-04-23T03:58:59.851Z,14.90
2023-04-23T04:01:27.022Z,14.90
2023-04-23T04:03:54.290Z,14.90
2023-04-23T04:06:23.463Z,14.90
2023-04-23T04:08:50.528Z,14.80
2023-04-23T04:11:17.836Z,14.70
2023-04-23T04:13:45.031Z,14.70
2023-04-23T04:16:12.479Z,14.70
2023-04-23T04:18:39.571Z,14.60
2023-04-23T04:21:07.634Z,14.50
2023-04-23T04:23:35.203Z,14.50
2023-04-23T04:26:02.697Z,14.50
2023-04-23T04:28:36.467Z,14.50
2023-04-23T04:31:07.159Z,14.50
2023-04-23T04:33:40.068Z,14.40
2023-04-23T04:36:09.539Z,14.40
2023-04-23T04:38:38.038Z,14.40
2023-04-23T04:41:05.458Z,14.40
2023-04-23T04:43:34.558Z,14.40
2023-04-23T04:46:02.246Z,14.30
2023-04-23T04:48:32.423Z,14.30
2023-04-23T04:50:59.710Z,14.30
2023-04-23T04:53:26.894Z,14.30
2023-04-23T04:55:58.345Z,14.40
2023-04-23T04:58:25.582Z,14.40
2023-04-23T05:00:56.185Z,14.40
2023-04-23T05:03:27.175Z,14.40
2023-04-23T05:05:59.124Z,14.40
2023-04-23T05:08:26.103Z,14.40
2023-04-23T05:10:54.390Z,14.40
2023-04-23T05:13:21.967Z,14.50
2023-04-23T05:15:51.725Z,14.50
2023-04-23T05:18:21.686Z,14.50
2023-04-23T05:20:49.122Z,14.50
2023-04-23T05:23:16.871Z,14.60
2023-04-23T05:25:44.113Z,14.60
2023-04-23T05:28:13.406Z,14.60
2023-04-23T05:30:40.618Z,14.70
2023-04-23T05:33:07.721Z,14.70
2023-04-23T05:35:34.899Z,14.80
2023-04-23T05:38:03.116Z,14.80
2023-04-23T05:40:30.911Z,14.80
2023-04-23T05:43:01.571Z,14.90
2023-04-23T05:45:29.077Z,14.90
2023-04-23T05:47:56.231Z,15.00
2023-04-23T05:50:27.817Z,15.00
2023-04-23T05:52:55.633Z,15.10
2023-04-23T05:55:24.770Z,15.20
2023-04-23T05:57:52.035Z,15.30
2023-04-23T06:00:21.509Z,15.40
2023-04-23T06:02:49.204Z,15.50
2023-04-23T06:05:16.903Z,15.50
2023-04-23T06:07:44.540Z,15.60
2023-04-23T06:10:13.520Z,15.60
2023-04-23T06:12:42.501Z,15.70
2023-04-23T06:15:10.408Z,15.80
2023-04-23T06:17:39.165Z,15.90
2023-04-23T06:20:09.254Z,16.00
2023-04-23T06:22:41.935Z,16.20
2023-04-23T06:25:10.352Z,16.30
2023-04-23T06:27:38.846Z,16.30
2023-04-23T06:30:16.076Z,16.30
2023-04-23T06:32:45.987Z,16.30
2023-04-23T06:35:13.426Z,16.30
2023-04-23T06:37:41.081Z,16.20
2023-04-23T06:40:08.745Z,16.20
2023-04-23T06:42:36.027Z,16.20
2023-04-23T06:45:15.472Z,16.20
2023-04-23T06:47:42.928Z,16.20
2023-04-23T06:50:12.944Z,16.20
2023-04-23T06:52:40.571Z,16.40
2023-04-23T06:55:09.595Z,16.50
2023-04-23T06:57:36.936Z,16.60
2023-04-23T07:00:11.374Z,16.60
2023-04-23T07:02:41.646Z,16.60
2023-04-23T07:05:10.701Z,16.70
2023-04-23T07:07:38.573Z,16.70
2023-04-23T07:10:34.208Z,16.70
2023-04-23T07:13:15.861Z,16.80
2023-04-23T07:15:43.731Z,16.90
2023-04-23T07:18:11.177Z,17.00
2023-04-23T07:20:42.908Z,17.10
2023-04-23T07:23:10.586Z,17.10
2023-04-23T07:25:39.381Z,17.20
2023-04-23T07:28:12.990Z,17.20
2023-04-23T07:30:40.298Z,17.30
2023-04-23T07:33:07.745Z,17.30
2023-04-23T07:35:35.083Z,17.30
2023-04-23T07:38:02.191Z,17.30
2023-04-23T07:40:29.519Z,17.30
2023-04-23T07:42:59.003Z,17.40
2023-04-23T07:45:26.130Z,17.50
2023-04-23T07:47:57.065Z,17.60
2023-04-23T07:50:26.584Z,17.70
2023-04-23T07:52:55.071Z,17.70
2023-04-23T07:55:22.353Z,17.70
2023-04-23T07:57:49.744Z,17.80
2023-04-23T08:00:17.121Z,17.90
2023-04-23T08:02:44.385Z,17.90
2023-04-23T08:05:32.980Z,17.90
2023-04-23T08:08:00.438Z,17.90
2023-04-23T08:10:30.058Z,18.20
2023-04-23T08:12:57.228Z,18.20
2023-04-23T08:15:24.376Z,18.30
2023-04-23T08:17:51.919Z,18.40
2023-04-23T08:20:19.661Z,18.50
2023-04-23T08:22:57.054Z,18.60
2023-04-23T08:25:25.565Z,18.70
2023-04-23T08:27:52.781Z,18.90
2023-04-23T08:30:20.215Z,19.00
2023-04-23T08:32:53.926Z,19.20
2023-04-23T08:35:24.390Z,19.40
2023-04-23T08:37:51.748Z,19.50
2023-04-23T08:40:21.764Z,19.70
2023-04-23T08:43:18.283Z,19.80
2023-04-23T08:45:49.853Z,20.00
2023-04-23T08:48:27.145Z,20.20
2023-04-23T08:54:27.524Z,20.60
2023-04-23T08:57:02.773Z,20.90
2023-04-23T08:59:55.355Z,20.90
2023-04-23T09:03:29.139Z,21.00
2023-04-23T09:06:02.045Z,21.20
2023-04-23T09:08:41.749Z,21.30
2023-04-23T09:11:10.608Z,21.50
2023-04-23T09:13:38.757Z,21.60
2023-04-23T09:16:11.759Z,21.60
2023-04-23T09:18:45.184Z,21.60
2023-04-23T09:21:45.093Z,21.60
2023-04-23T09:24:14.900Z,21.80
2023-04-23T09:26:50.207Z,21.90
2023-04-23T09:29:23.652Z,21.80
2023-04-23T09:32:11.889Z,21.80
2023-04-23T09:34:39.865Z,22.00
2023-04-23T09:37:13.902Z,22.00
2023-04-23T09:39:41.546Z,21.90
2023-04-23T09:42:11.530Z,21.80
2023-04-23T09:44:38.688Z,22.00
2023-04-23T09:47:12.401Z,22.20
2023-04-23T09:49:50.216Z,22.30
2023-04-23T09:52:18.566Z,22.30
2023-04-23T09:54:48.528Z,22.40
2023-04-23T09:57:24.299Z,22.20
2023-04-23T10:02:48.350Z,22.50
2023-04-23T10:05:45.333Z,22.70
2023-04-23T10:12:31.379Z,22.50
2023-04-23T10:15:19.755Z,22.50
2023-04-23T10:17:51.734Z,22.70
2023-04-23T10:20:24.910Z,22.80
2023-04-23T10:28:52.337Z,23.30
2023-04-23T10:31:34.797Z,23.30
2023-04-23T10:34:14.581Z,23.30
2023-04-23T10:39:44.186Z,23.60
2023-04-23T10:42:31.328Z,23.40
2023-04-23T10:45:16.443Z,23.30
2023-04-23T10:47:59.307Z,23.20
2023-04-23T10:50:29.617Z,23.40
2023-04-23T10:53:36.522Z,23.10
2023-04-23T10:56:09.362Z,23.10
2023-04-23T10:59:04.647Z,23.40
2023-04-23T11:01:44.613Z,23.70
2023-04-23T11:04:33.274Z,23.90
2023-04-23T11:07:08.931Z,24.00
2023-04-23T11:09:44.019Z,24.20
2023-04-23T11:12:32.942Z,24.30
2023-04-23T11:15:11.004Z,24.60
2023-04-23T11:17:45.101Z,24.70
2023-04-23T11:20:21.869Z,24.60
2023-04-23T11:23:02.907Z,24.80
2023-04-23T11:25:44.795Z,24.90
2023-04-23T11:28:12.421Z,25.20
2023-04-23T11:30:42.771Z,25.20
2023-04-23T11:35:51.288Z,24.70
2023-04-23T11:38:46.944Z,24.40
2023-04-23T11:41:22.800Z,24.30
2023-04-23T11:43:57.744Z,24.40
2023-04-23T11:46:25.466Z,24.70
2023-04-23T11:48:57.092Z,24.70
2023-04-23T11:51:33.825Z,24.90
2023-04-23T11:54:05.381Z,25.20
2023-04-23T11:56:46.100Z,25.20
2023-04-23T11:59:16.166Z,25.20
2023-04-23T12:01:45.802Z,25.00
2023-04-23T12:05:23.924Z,25.10
2023-04-23T12:08:02.256Z,25.20
2023-04-23T12:10:29.900Z,25.00
2023-04-23T12:16:16.557Z,24.90
2023-04-23T12:18:54.049Z,25.20
2023-04-23T12:21:43.646Z,25.50
2023-04-23T12:28:10.599Z,25.80
2023-04-23T12:33:42.756Z,25.20
2023-04-23T12:36:25.938Z,24.90
2023-04-23T12:46:06.048Z,24.00
2023-04-23T12:48:34.416Z,24.40
2023-04-23T12:51:04.737Z,24.80
2023-04-23T12:53:35.363Z,25.10
2023-04-23T13:02:31.399Z,26.10
2023-04-23T13:05:04.867Z,25.60
2023-04-23T13:07:37.396Z,25.40
2023-04-23T13:10:11.564Z,25.30
2023-04-23T13:12:44.302Z,25.60
2023-04-23T13:15:33.851Z,26.00
2023-04-23T13:18:01.756Z,25.90
2023-04-23T13:20:40.463Z,25.80
2023-04-23T13:23:10.669Z,25.80
2023-04-23T13:28:44.918Z,25.80
2023-04-23T13:31:15.123Z,25.80
2023-04-23T13:33:42.694Z,25.30
2023-04-23T13:36:10.266Z,24.90
2023-04-23T13:38:49.303Z,24.50
2023-04-23T13:41:38.719Z,24.20
2023-04-23T13:44:14.156Z,23.80
2023-04-23T13:46:42.553Z,23.60
2023-04-23T13:49:11.528Z,23.80
2023-04-23T13:51:44.230Z,24.20
2023-04-23T13:54:17.571Z,24.60
2023-04-23T14:00:03.460Z,24.90
2023-04-23T14:02:32.056Z,24.90
2023-04-23T14:05:09.987Z,24.60
2023-04-23T14:07:40.071Z,24.70
2023-04-23T14:10:07.978Z,24.90
2023-04-23T14:12:43.524Z,25.00
2023-04-23T14:15:13.246Z,25.00
2023-04-23T14:17:43.281Z,25.00
2023-04-23T14:20:13.337Z,24.70
2023-04-23T14:22:50.030Z,24.40
2023-04-23T14:25:32.312Z,24.30
2023-04-23T14:28:37.380Z,24.10
2023-04-23T14:31:06.586Z,24.10
2023-04-23T14:33:39.054Z,23.90
2023-04-23T14:36:16.332Z,23.80
2023-04-23T14:38:52.504Z,23.60
2023-04-23T14:41:30.200Z,23.40
2023-04-23T14:44:05.020Z,23.30
2023-04-23T14:46:45.303Z,23.20
2023-04-23T14:49:16.290Z,23.10
2023-04-23T14:51:48.796Z,23.20
2023-04-23T14:54:27.606Z,23.30
2023-04-23T14:56:55.454Z,23.30
2023-04-23T14:59:27.991Z,23.60
2023-04-23T15:02:02.462Z,24.20
2023-04-23T15:04:39.419Z,24.90
2023-04-23T15:10:09.246Z,26.20
2023-04-23T15:13:03.260Z,26.50
2023-04-23T15:16:03.132Z,27.00
2023-04-23T15:18:30.601Z,27.30
2023-04-23T15:20:58.180Z,27.50
2023-04-23T15:23:31.411Z,27.60
2023-04-23T15:26:03.795Z,27.60
2023-04-23T15:28:32.039Z,27.50
2023-04-23T15:31:01.135Z,27.40
2023-04-23T15:33:34.331Z,27.30
2023-04-23T15:36:09.029Z,27.20
2023-04-23T15:38:39.405Z,27.30
2023-04-23T15:41:09.099Z,27.30
2023-04-23T15:43:36.136Z,27.30
2023-04-23T15:46:03.358Z,27.50
2023-04-23T15:48:31.140Z,27.60
2023-04-23T15:50:58.426Z,27.40
2023-04-23T15:53:34.356Z,27.30
2023-04-23T15:56:01.872Z,27.20
2023-04-23T15:58:32.068Z,27.10
2023-04-23T16:01:00.920Z,27.20
2023-04-23T16:03:28.783Z,27.00
2023-04-23T16:05:58.618Z,26.60
2023-04-23T16:08:26.174Z,26.20
2023-04-23T16:10:53.386Z,25.90
2023-04-23T16:13:20.607Z,25.50
2023-04-23T16:15:48.595Z,25.20
2023-04-23T16:18:18.112Z,24.90
2023-04-23T16:20:45.277Z,24.70
2023-04-23T16:23:12.531Z,24.60
2023-04-23T16:25:49.075Z,24.60
2023-04-23T16:28:17.866Z,24.50
2023-04-23T16:30:45.016Z,24.40
2023-04-23T16:33:14.725Z,24.30
2023-04-23T16:35:42.180Z,24.20
2023-04-23T16:38:11.848Z,24.10
2023-04-23T16:40:39.970Z,24.00
2023-04-23T16:43:17.808Z,23.90
2023-04-23T16:45:45.492Z,23.70
2023-04-23T16:48:16.768Z,23.60
2023-04-23T16:50:44.538Z,23.50
2023-04-23T16:53:13.594Z,23.40
2023-04-23T16:55:42.909Z,23.20
2023-04-23T16:58:12.686Z,23.10
2023-04-23T17:00:40.236Z,23.00
2023-04-23T17:03:08.210Z,22.90
2023-04-23T17:05:41.792Z,22.80
2023-04-23T17:08:08.928Z,22.70
2023-04-23T17:10:36.227Z,22.60
2023-04-23T17:13:13.734Z,22.60
2023-04-23T17:15:41.709Z,22.40
2023-04-23T17:18:10.565Z,22.40
2023-04-23T17:20:38.460Z,22.30
2023-04-23T17:23:05.723Z,22.20
2023-04-23T17:25:33.082Z,22.10
2023-04-23T17:28:00.421Z,22.00
2023-04-23T17:30:27.571Z,22.00
2023-04-23T17:32:55.919Z,21.90
2023-04-23T17:35:23.817Z,21.80
2023-04-23T17:37:53.076Z,21.60
2023-04-23T17:40:21.239Z,21.50
2023-04-23T17:42:50.649Z,21.50
2023-04-23T17:45:18.741Z,21.40
2023-04-23T17:47:47.904Z,21.40
2023-04-23T17:50:15.093Z,21.30
2023-04-23T17:52:44.278Z,21.30
2023-04-23T17:55:12.204Z,21.20
2023-04-23T17:57:42.533Z,21.20
2023-04-23T18:00:14.606Z,21.10
2023-04-23T18:02:42.183Z,21.00
2023-04-23T18:05:11.118Z,21.00
2023-04-23T18:07:46.572Z,21.00
2023-04-23T18:10:13.920Z,20.90
2023-04-23T18:12:41.793Z,20.80
2023-04-23T18:15:22.961Z,20.80
2023-04-23T18:17:50.569Z,20.80
2023-04-23T18:20:17.830Z,20.80
2023-04-23T18:22:44.893Z,20.70
2023-04-23T18:25:12.879Z,20.60
2023-04-23T18:27:40.613Z,20.60
2023-04-23T18:30:09.060Z,20.60
2023-04-23T18:32:42.175Z,20.60
2023-04-23T18:35:12.335Z,20.50
2023-04-23T18:37:48.574Z,20.50
2023-04-23T18:40:15.855Z,20.40
2023-04-23T18:42:43.235Z,20.30
2023-04-23T18:45:10.880Z,20.20
2023-04-23T18:47:44.460Z,20.20
2023-04-23T18:50:50.394Z,20.00
2023-04-23T18:53:22.195Z,20.00
2023-04-23T18:55:49.672Z,20.00
2023-04-23T18:58:16.757Z,19.90
2023-04-23T19:00:43.910Z,19.90
2023-04-23T19:03:23.639Z,19.90
2023-04-23T19:05:54.389Z,19.90
2023-04-23T19:08:22.854Z,19.80
2023-04-23T19:10:54.232Z,19.80
2023-04-23T19:13:22.990Z,19.70
2023-04-23T19:15:50.810Z,19.70
2023-04-23T19:18:24.938Z,19.70
2023-04-23T19:21:04.914Z,19.70
2023-04-23T19:23:32.277Z,19.60
2023-04-23T19:25:59.455Z,19.50
2023-04-23T19:28:26.565Z,19.50
2023-04-23T19:30:53.842Z,19.50
2023-04-23T19:33:21.084Z,19.50
2023-04-23T19:35:48.550Z,19.50
2023-04-23T19:38:15.979Z,19.50
2023-04-23T19:40:43.493Z,19.50
2023-04-23T19:43:13.116Z,19.40
2023-04-23T19:45:40.555Z,19.40
2023-04-23T19:48:08.581Z,19.40
2023-04-23T19:50:35.946Z,19.40
2023-04-23T19:53:07.386Z,19.40
2023-04-23T19:55:37.642Z,19.30
2023-04-23T19:58:13.054Z,19.30
2023-04-23T20:00:44.830Z,19.30
2023-04-23T20:03:12.911Z,19.30
2023-04-23T20:05:42.500Z,19.20
2023-04-23T20:08:15.402Z,19.20
2023-04-23T20:10:48.127Z,19.20
2023-04-23T20:13:15.417Z,19.20
2023-04-23T20:15:43.241Z,19.20
2023-04-23T20:18:11.073Z,19.20
2023-04-23T20:20:44.396Z,19.20
2023-04-23T20:23:11.592Z,19.30
2023-04-23T20:25:40.067Z,19.30
2023-04-23T20:28:11.862Z,19.30
2023-04-23T20:30:39.009Z,19.30
2023-04-23T20:33:08.813Z,19.30
2023-04-23T20:35:36.112Z,19.30
2023-04-23T20:38:03.666Z,19.30
2023-04-23T20:40:34.756Z,19.30
2023-04-23T20:43:02.291Z,19.30
2023-04-23T20:45:38.101Z,19.20
2023-04-23T20:48:08.615Z,19.10
2023-04-23T20:50:37.579Z,19.10
2023-04-23T20:53:04.914Z,19.10
2023-04-23T20:55:31.993Z,19.10
2023-04-23T20:57:59.182Z,19.10
2023-04-23T21:00:30.361Z,19.20
2023-04-23T21:02:57.855Z,19.10
2023-04-23T21:05:25.452Z,19.10
2023-04-23T21:07:52.997Z,19.10
2023-04-23T21:10:20.675Z,19.20
2023-04-23T21:12:50.625Z,19.10
2023-04-23T21:15:18.128Z,19.10
2023-04-23T21:17:45.320Z,19.10
2023-04-23T21:20:12.542Z,19.10
2023-04-23T21:22:40.053Z,19.10
2023-04-23T21:25:09.887Z,19.10
2023-04-23T21:27:39.652Z,19.10
2023-04-23T21:30:13.044Z,19.10
2023-04-23T21:32:40.342Z,19.10
2023-04-23T21:35:09.366Z,19.10
2023-04-23T21:37:38.099Z,19.00
2023-04-23T21:40:06.157Z,19.00
2023-04-23T21:42:33.192Z,19.00
2023-04-23T21:45:02.093Z,19.00
2023-04-23T21:47:31.743Z,19.00
2023-04-23T21:50:00.307Z,19.00
2023-04-23T21:52:27.491Z,19.00
2023-04-23T21:54:54.579Z,18.90
2023-04-23T21:57:21.692Z,18.90
2023-04-23T21:59:51.957Z,18.80
2023-04-23T22:02:19.285Z,18.80
2023-04-23T22:04:47.013Z,18.80
2023-04-23T22:07:14.143Z,18.70
2023-04-23T22:09:41.676Z,18.70
2023-04-23T22:12:09.556Z,18.70
2023-04-23T22:14:36.811Z,18.60
2023-04-23T22:17:03.992Z,18.50
2023-04-23T22:19:33.813Z,18.60
2023-04-23T22:22:01.661Z,18.50
2023-04-23T22:24:29.146Z,18.60
2023-04-23T22:26:58.263Z,18.60
2023-04-23T22:29:25.517Z,18.60
2023-04-23T22:31:52.934Z,18.60
2023-04-23T22:34:20.295Z,18.50
2023-04-23T22:36:47.370Z,18.50
2023-04-23T22:39:15.505Z,18.50
2023-04-23T22:41:42.575Z,18.50
2023-04-23T22:44:09.757Z,18.50
2023-04-23T22:46:37.444Z,18.50
2023-04-23T22:49:07.941Z,18.40
2023-04-23T22:51:35.483Z,18.30
2023-04-23T22:54:02.593Z,18.30
2023-04-23T22:56:32.930Z,18.30
2023-04-23T22:59:00.012Z,18.30
2023-04-23T23:01:27.229Z,18.30
2023-04-23T23:03:54.607Z,18.30
2023-04-23T23:06:22.171Z,18.30
2023-04-23T23:08:52.106Z,18.30
2023-04-23T23:11:19.503Z,18.30
2023-04-23T23:13:47.983Z,18.30
2023-04-23T23:16:15.359Z,18.30
2023-04-23T23:18:42.380Z,18.30
2023-04-23T23:21:12.261Z,18.30
2023-04-23T23:23:39.459Z,18.30
2023-04-23T23:26:06.644Z,18.30
2023-04-23T23:28:33.811Z,18.20
2023-04-23T23:31:03.971Z,18.30
2023-04-23T23:33:31.336Z,18.20
2023-04-23T23:36:01.781Z,18.20
2023-04-23T23:38:28.963Z,18.20
2023-04-23T23:40:56.588Z,18.30
2023-04-23T23:43:24.287Z,18.20
2023-04-23T23:45:52.532Z,18.20
2023-04-23T23:48:19.981Z,18.20
2023-04-23T23:50:47.555Z,18.20
2023-04-23T23:53:14.687Z,18.20
2023-04-23T23:55:41.909Z,18.30
2023-04-23T23:58:11.998Z,18.20
